sensor_id;sensor_type;location;lat;lon;timestamp;P1;durP1;ratioP1;P2;durP2;ratioP2
14776;SDS011;7480;43.124;25.686;2023-02-12T00:01:10;28.77;;;17.17;;
14776;SDS011;7480;43.124;25.686;2023-02-12T00:03:37;27.57;;;17.13;;
14776;SDS011;7480;43.124;25.686;2023-02-12T00:06:05;21.70;;;13.07;;
14776;SDS011;7480;43.124;25.686;2023-02-12T00:08:33;42.20;;;23.30;;
14776;SDS011;7480;43.124;25.686;2023-02-12T00:11:05;22.87;;;12.17;;
14776;SDS011;7480;43.124;25.686;2023-02-12T00:13:34;30.20;;;17.98;;
14776;SDS011;7480;43.124;25.686;2023-02-12T00:16:04;20.90;;;13.50;;
14776;SDS011;7480;43.124;25.686;2023-02-12T00:18:32;30.40;;;15.57;;
14776;SDS011;7480;43.124;25.686;2023-02-12T00:20:59;26.50;;;13.03;;
14776;SDS011;7480;43.124;25.686;2023-02-12T00:23:26;20.83;;;12.67;;
14776;SDS011;7480;43.124;25.686;2023-02-12T00:25:53;21.60;;;12.80;;
14776;SDS011;7480;43.124;25.686;2023-02-12T00:28:20;20.80;;;11.87;;
14776;SDS011;7480;43.124;25.686;2023-02-12T00:30:47;19.10;;;11.97;;
14776;SDS011;7480;43.124;25.686;2023-02-12T00:33:23;20.23;;;11.54;;
14776;SDS011;7480;43.124;25.686;2023-02-12T00:35:56;22.00;;;12.60;;
14776;SDS011;7480;43.124;25.686;2023-02-12T00:38:23;20.87;;;12.03;;
14776;SDS011;7480;43.124;25.686;2023-02-12T00:40:49;21.47;;;11.40;;
14776;SDS011;7480;43.124;25.686;2023-02-12T00:43:16;39.27;;;22.20;;
14776;SDS011;7480;43.124;25.686;2023-02-12T00:45:43;22.80;;;12.77;;
14776;SDS011;7480;43.124;25.686;2023-02-12T00:48:11;27.40;;;16.67;;
14776;SDS011;7480;43.124;25.686;2023-02-12T00:50:38;27.27;;;16.53;;
14776;SDS011;7480;43.124;25.686;2023-02-12T00:53:06;23.23;;;12.10;;
14776;SDS011;7480;43.124;25.686;2023-02-12T00:55:33;18.87;;;11.67;;
14776;SDS011;7480;43.124;25.686;2023-02-12T00:58:00;18.03;;;11.87;;
14776;SDS011;7480;43.124;25.686;2023-02-12T01:00:27;28.90;;;16.20;;
14776;SDS011;7480;43.124;25.686;2023-02-12T01:02:53;35.90;;;16.47;;
14776;SDS011;7480;43.124;25.686;2023-02-12T01:05:20;16.77;;;9.73;;
14776;SDS011;7480;43.124;25.686;2023-02-12T01:07:50;41.73;;;20.33;;
14776;SDS011;7480;43.124;25.686;2023-02-12T01:10:18;48.57;;;17.93;;
14776;SDS011;7480;43.124;25.686;2023-02-12T01:12:46;36.70;;;16.00;;
14776;SDS011;7480;43.124;25.686;2023-02-12T01:15:13;65.30;;;24.60;;
14776;SDS011;7480;43.124;25.686;2023-02-12T01:17:41;27.07;;;14.73;;
14776;SDS011;7480;43.124;25.686;2023-02-12T01:20:08;45.33;;;21.20;;
14776;SDS011;7480;43.124;25.686;2023-02-12T01:22:37;92.83;;;37.83;;
14776;SDS011;7480;43.124;25.686;2023-02-12T01:25:04;45.70;;;21.57;;
14776;SDS011;7480;43.124;25.686;2023-02-12T01:27:31;30.43;;;16.10;;
14776;SDS011;7480;43.124;25.686;2023-02-12T01:29:58;31.77;;;16.00;;
14776;SDS011;7480;43.124;25.686;2023-02-12T01:32:25;31.73;;;16.10;;
14776;SDS011;7480;43.124;25.686;2023-02-12T01:34:51;34.43;;;18.63;;
14776;SDS011;7480;43.124;25.686;2023-02-12T01:37:18;37.17;;;19.40;;
14776;SDS011;7480;43.124;25.686;2023-02-12T01:39:45;24.93;;;13.57;;
14776;SDS011;7480;43.124;25.686;2023-02-12T01:42:12;31.53;;;17.07;;
14776;SDS011;7480;43.124;25.686;2023-02-12T01:47:38;30.90;;;15.60;;
14776;SDS011;7480;43.124;25.686;2023-02-12T01:50:09;23.93;;;13.20;;
14776;SDS011;7480;43.124;25.686;2023-02-12T01:52:39;19.07;;;12.47;;
14776;SDS011;7480;43.124;25.686;2023-02-12T01:55:08;28.07;;;16.83;;
14776;SDS011;7480;43.124;25.686;2023-02-12T01:57:40;25.53;;;14.17;;
14776;SDS011;7480;43.124;25.686;2023-02-12T02:00:09;25.77;;;15.07;;
14776;SDS011;7480;43.124;25.686;2023-02-12T02:02:38;21.20;;;11.17;;
14776;SDS011;7480;43.124;25.686;2023-02-12T02:05:05;22.57;;;12.27;;
14776;SDS011;7480;43.124;25.686;2023-02-12T02:07:32;23.63;;;13.50;;
14776;SDS011;7480;43.124;25.686;2023-02-12T02:09:59;18.73;;;12.10;;
14776;SDS011;7480;43.124;25.686;2023-02-12T02:12:27;18.70;;;11.40;;
14776;SDS011;7480;43.124;25.686;2023-02-12T02:15:13;22.70;;;11.53;;
14776;SDS011;7480;43.124;25.686;2023-02-12T02:31:58;19.13;;;12.07;;
14776;SDS011;7480;43.124;25.686;2023-02-12T02:34:59;20.63;;;10.93;;
14776;SDS011;7480;43.124;25.686;2023-02-12T02:37:31;20.27;;;12.53;;
14776;SDS011;7480;43.124;25.686;2023-02-12T02:40:08;18.27;;;11.23;;
14776;SDS011;7480;43.124;25.686;2023-02-12T02:48:17;19.27;;;11.80;;
14776;SDS011;7480;43.124;25.686;2023-02-12T02:50:56;16.17;;;9.77;;
14776;SDS011;7480;43.124;25.686;2023-02-12T02:53:28;13.83;;;9.10;;
14776;SDS011;7480;43.124;25.686;2023-02-12T02:55:57;16.27;;;10.50;;
14776;SDS011;7480;43.124;25.686;2023-02-12T02:58:26;14.90;;;9.43;;
14776;SDS011;7480;43.124;25.686;2023-02-12T03:03:55;14.73;;;9.20;;
14776;SDS011;7480;43.124;25.686;2023-02-12T03:08:54;15.33;;;10.00;;
14776;SDS011;7480;43.124;25.686;2023-02-12T03:11:28;13.53;;;7.93;;
14776;SDS011;7480;43.124;25.686;2023-02-12T03:16:43;12.90;;;8.17;;
14776;SDS011;7480;43.124;25.686;2023-02-12T03:19:16;10.30;;;7.60;;
14776;SDS011;7480;43.124;25.686;2023-02-12T03:21:45;12.53;;;8.40;;
14776;SDS011;7480;43.124;25.686;2023-02-12T03:24:17;13.17;;;8.37;;
14776;SDS011;7480;43.124;25.686;2023-02-12T03:26:51;13.53;;;8.80;;
14776;SDS011;7480;43.124;25.686;2023-02-12T03:29:21;16.13;;;8.57;;
14776;SDS011;7480;43.124;25.686;2023-02-12T03:37:18;14.23;;;9.00;;
14776;SDS011;7480;43.124;25.686;2023-02-12T03:42:19;15.37;;;9.97;;
14776;SDS011;7480;43.124;25.686;2023-02-12T03:44:55;17.50;;;9.80;;
14776;SDS011;7480;43.124;25.686;2023-02-12T03:52:39;17.20;;;10.20;;
14776;SDS011;7480;43.124;25.686;2023-02-12T03:55:06;17.13;;;10.57;;
14776;SDS011;7480;43.124;25.686;2023-02-12T03:57:36;11.87;;;8.37;;
14776;SDS011;7480;43.124;25.686;2023-02-12T04:00:10;14.77;;;9.83;;
14776;SDS011;7480;43.124;25.686;2023-02-12T04:02:40;14.07;;;9.13;;
14776;SDS011;7480;43.124;25.686;2023-02-12T04:05:07;16.70;;;9.97;;
14776;SDS011;7480;43.124;25.686;2023-02-12T04:07:41;15.03;;;9.43;;
14776;SDS011;7480;43.124;25.686;2023-02-12T04:10:08;15.00;;;9.33;;
14776;SDS011;7480;43.124;25.686;2023-02-12T04:18:24;19.23;;;10.53;;
14776;SDS011;7480;43.124;25.686;2023-02-12T04:24:06;17.50;;;11.17;;
14776;SDS011;7480;43.124;25.686;2023-02-12T04:27:09;19.87;;;11.07;;
14776;SDS011;7480;43.124;25.686;2023-02-12T04:29:47;19.03;;;11.37;;
14776;SDS011;7480;43.124;25.686;2023-02-12T04:32:24;18.87;;;10.40;;
14776;SDS011;7480;43.124;25.686;2023-02-12T04:35:02;21.13;;;11.43;;
14776;SDS011;7480;43.124;25.686;2023-02-12T04:37:54;18.33;;;11.40;;
14776;SDS011;7480;43.124;25.686;2023-02-12T04:40:24;20.63;;;11.30;;
14776;SDS011;7480;43.124;25.686;2023-02-12T04:42:51;20.80;;;11.43;;
14776;SDS011;7480;43.124;25.686;2023-02-12T04:45:20;20.27;;;11.30;;
14776;SDS011;7480;43.124;25.686;2023-02-12T04:47:51;21.67;;;11.87;;
14776;SDS011;7480;43.124;25.686;2023-02-12T04:50:18;20.93;;;12.03;;
14776;SDS011;7480;43.124;25.686;2023-02-12T04:52:45;20.83;;;11.77;;
14776;SDS011;7480;43.124;25.686;2023-02-12T04:55:12;20.00;;;11.93;;
14776;SDS011;7480;43.124;25.686;2023-02-12T04:57:39;20.33;;;12.27;;
14776;SDS011;7480;43.124;25.686;2023-02-12T05:00:07;24.03;;;11.63;;
14776;SDS011;7480;43.124;25.686;2023-02-12T05:02:34;21.27;;;11.73;;
14776;SDS011;7480;43.124;25.686;2023-02-12T05:05:01;21.07;;;11.70;;
14776;SDS011;7480;43.124;25.686;2023-02-12T05:07:28;20.33;;;11.47;;
14776;SDS011;7480;43.124;25.686;2023-02-12T05:09:55;20.90;;;12.30;;
14776;SDS011;7480;43.124;25.686;2023-02-12T05:12:22;22.73;;;11.43;;
14776;SDS011;7480;43.124;25.686;2023-02-12T05:14:48;24.97;;;13.53;;
14776;SDS011;7480;43.124;25.686;2023-02-12T05:17:15;23.47;;;12.70;;
14776;SDS011;7480;43.124;25.686;2023-02-12T05:19:42;22.47;;;13.07;;
14776;SDS011;7480;43.124;25.686;2023-02-12T05:22:08;22.13;;;11.67;;
14776;SDS011;7480;43.124;25.686;2023-02-12T05:24:35;22.63;;;12.40;;
14776;SDS011;7480;43.124;25.686;2023-02-12T05:27:02;80.10;;;48.03;;
14776;SDS011;7480;43.124;25.686;2023-02-12T05:29:29;19.10;;;12.20;;
14776;SDS011;7480;43.124;25.686;2023-02-12T05:31:55;21.00;;;12.47;;
14776;SDS011;7480;43.124;25.686;2023-02-12T05:34:22;29.13;;;16.73;;
14776;SDS011;7480;43.124;25.686;2023-02-12T05:36:49;24.77;;;13.60;;
14776;SDS011;7480;43.124;25.686;2023-02-12T05:39:15;32.90;;;15.97;;
14776;SDS011;7480;43.124;25.686;2023-02-12T05:41:42;35.47;;;20.63;;
14776;SDS011;7480;43.124;25.686;2023-02-12T05:44:09;31.67;;;17.30;;
14776;SDS011;7480;43.124;25.686;2023-02-12T05:46:40;26.20;;;16.47;;
14776;SDS011;7480;43.124;25.686;2023-02-12T05:49:08;30.30;;;17.13;;
14776;SDS011;7480;43.124;25.686;2023-02-12T05:51:35;24.63;;;14.97;;
14776;SDS011;7480;43.124;25.686;2023-02-12T05:54:03;25.83;;;15.60;;
14776;SDS011;7480;43.124;25.686;2023-02-12T05:56:32;28.80;;;16.93;;
14776;SDS011;7480;43.124;25.686;2023-02-12T05:59:02;30.83;;;15.37;;
14776;SDS011;7480;43.124;25.686;2023-02-12T06:01:33;29.57;;;16.17;;
14776;SDS011;7480;43.124;25.686;2023-02-12T06:04:04;39.97;;;22.10;;
14776;SDS011;7480;43.124;25.686;2023-02-12T06:06:32;33.83;;;18.17;;
14776;SDS011;7480;43.124;25.686;2023-02-12T06:08:59;42.20;;;21.47;;
14776;SDS011;7480;43.124;25.686;2023-02-12T06:11:27;35.20;;;17.83;;
14776;SDS011;7480;43.124;25.686;2023-02-12T06:13:53;46.60;;;22.90;;
14776;SDS011;7480;43.124;25.686;2023-02-12T06:16:21;36.93;;;18.83;;
14776;SDS011;7480;43.124;25.686;2023-02-12T06:18:50;49.90;;;26.17;;
14776;SDS011;7480;43.124;25.686;2023-02-12T06:21:17;115.00;;;47.90;;
14776;SDS011;7480;43.124;25.686;2023-02-12T06:23:45;96.13;;;43.20;;
14776;SDS011;7480;43.124;25.686;2023-02-12T06:26:12;66.10;;;33.23;;
14776;SDS011;7480;43.124;25.686;2023-02-12T06:28:39;79.10;;;42.43;;
14776;SDS011;7480;43.124;25.686;2023-02-12T06:31:16;32.77;;;21.57;;
14776;SDS011;7480;43.124;25.686;2023-02-12T06:33:44;69.10;;;39.30;;
14776;SDS011;7480;43.124;25.686;2023-02-12T06:36:11;39.07;;;21.97;;
14776;SDS011;7480;43.124;25.686;2023-02-12T06:38:37;82.23;;;40.03;;
14776;SDS011;7480;43.124;25.686;2023-02-12T06:41:04;42.63;;;22.17;;
14776;SDS011;7480;43.124;25.686;2023-02-12T06:43:31;48.93;;;25.83;;
14776;SDS011;7480;43.124;25.686;2023-02-12T06:46:00;52.70;;;26.50;;
14776;SDS011;7480;43.124;25.686;2023-02-12T06:48:28;31.60;;;17.47;;
14776;SDS011;7480;43.124;25.686;2023-02-12T06:50:55;45.77;;;22.50;;
14776;SDS011;7480;43.124;25.686;2023-02-12T06:53:21;57.93;;;24.63;;
14776;SDS011;7480;43.124;25.686;2023-02-12T06:55:48;44.13;;;21.03;;
14776;SDS011;7480;43.124;25.686;2023-02-12T06:58:14;183.60;;;65.63;;
14776;SDS011;7480;43.124;25.686;2023-02-12T07:00:41;104.40;;;41.23;;
14776;SDS011;7480;43.124;25.686;2023-02-12T07:03:08;46.83;;;23.43;;
14776;SDS011;7480;43.124;25.686;2023-02-12T07:05:37;44.33;;;22.53;;
14776;SDS011;7480;43.124;25.686;2023-02-12T07:08:05;64.57;;;31.90;;
14776;SDS011;7480;43.124;25.686;2023-02-12T07:10:31;45.43;;;25.57;;
14776;SDS011;7480;43.124;25.686;2023-02-12T07:12:58;34.77;;;20.63;;
14776;SDS011;7480;43.124;25.686;2023-02-12T07:15:24;32.50;;;17.40;;
14776;SDS011;7480;43.124;25.686;2023-02-12T07:17:51;32.80;;;20.13;;
14776;SDS011;7480;43.124;25.686;2023-02-12T07:20:18;32.93;;;20.70;;
14776;SDS011;7480;43.124;25.686;2023-02-12T07:22:44;28.10;;;17.43;;
14776;SDS011;7480;43.124;25.686;2023-02-12T07:25:11;32.83;;;17.17;;
14776;SDS011;7480;43.124;25.686;2023-02-12T07:27:37;33.67;;;19.97;;
14776;SDS011;7480;43.124;25.686;2023-02-12T07:30:04;24.80;;;15.20;;
14776;SDS011;7480;43.124;25.686;2023-02-12T07:32:32;32.67;;;18.00;;
14776;SDS011;7480;43.124;25.686;2023-02-12T07:34:59;30.37;;;16.70;;
14776;SDS011;7480;43.124;25.686;2023-02-12T07:37:26;27.37;;;16.13;;
14776;SDS011;7480;43.124;25.686;2023-02-12T07:39:53;22.93;;;13.93;;
14776;SDS011;7480;43.124;25.686;2023-02-12T07:42:19;28.87;;;15.33;;
14776;SDS011;7480;43.124;25.686;2023-02-12T07:44:46;29.17;;;16.93;;
14776;SDS011;7480;43.124;25.686;2023-02-12T07:47:14;26.47;;;14.67;;
14776;SDS011;7480;43.124;25.686;2023-02-12T07:49:41;26.10;;;15.43;;
14776;SDS011;7480;43.124;25.686;2023-02-12T07:52:08;26.83;;;15.13;;
14776;SDS011;7480;43.124;25.686;2023-02-12T07:54:38;29.67;;;16.27;;
14776;SDS011;7480;43.124;25.686;2023-02-12T07:57:05;28.97;;;15.40;;
14776;SDS011;7480;43.124;25.686;2023-02-12T07:59:31;38.67;;;19.73;;
14776;SDS011;7480;43.124;25.686;2023-02-12T08:01:58;32.17;;;18.13;;
14776;SDS011;7480;43.124;25.686;2023-02-12T08:04:26;38.70;;;21.10;;
14776;SDS011;7480;43.124;25.686;2023-02-12T08:06:53;33.17;;;18.57;;
14776;SDS011;7480;43.124;25.686;2023-02-12T08:09:22;33.60;;;19.53;;
14776;SDS011;7480;43.124;25.686;2023-02-12T08:11:50;37.80;;;21.77;;
14776;SDS011;7480;43.124;25.686;2023-02-12T08:14:17;36.13;;;21.07;;
14776;SDS011;7480;43.124;25.686;2023-02-12T08:16:45;38.17;;;22.17;;
14776;SDS011;7480;43.124;25.686;2023-02-12T08:19:13;31.37;;;18.13;;
14776;SDS011;7480;43.124;25.686;2023-02-12T08:21:50;36.13;;;22.13;;
14776;SDS011;7480;43.124;25.686;2023-02-12T08:24:18;35.60;;;20.40;;
14776;SDS011;7480;43.124;25.686;2023-02-12T08:26:47;33.63;;;19.27;;
14776;SDS011;7480;43.124;25.686;2023-02-12T08:29:15;36.47;;;20.03;;
14776;SDS011;7480;43.124;25.686;2023-02-12T08:31:44;36.40;;;21.23;;
14776;SDS011;7480;43.124;25.686;2023-02-12T08:34:19;38.20;;;22.07;;
14776;SDS011;7480;43.124;25.686;2023-02-12T08:36:47;44.30;;;23.53;;
14776;SDS011;7480;43.124;25.686;2023-02-12T08:39:15;46.17;;;25.53;;
14776;SDS011;7480;43.124;25.686;2023-02-12T08:41:43;39.47;;;21.73;;
14776;SDS011;7480;43.124;25.686;2023-02-12T08:44:10;43.67;;;26.77;;
14776;SDS011;7480;43.124;25.686;2023-02-12T08:46:38;39.03;;;23.03;;
14776;SDS011;7480;43.124;25.686;2023-02-12T08:49:11;40.53;;;23.00;;
14776;SDS011;7480;43.124;25.686;2023-02-12T08:51:40;36.73;;;20.73;;
14776;SDS011;7480;43.124;25.686;2023-02-12T08:54:12;29.83;;;18.80;;
14776;SDS011;7480;43.124;25.686;2023-02-12T08:56:41;35.13;;;18.57;;
14776;SDS011;7480;43.124;25.686;2023-02-12T08:59:11;34.33;;;19.43;;
14776;SDS011;7480;43.124;25.686;2023-02-12T09:01:38;29.37;;;17.27;;
14776;SDS011;7480;43.124;25.686;2023-02-12T09:04:15;31.30;;;19.03;;
14776;SDS011;7480;43.124;25.686;2023-02-12T09:06:47;27.77;;;17.23;;
14776;SDS011;7480;43.124;25.686;2023-02-12T09:09:15;31.03;;;18.97;;
14776;SDS011;7480;43.124;25.686;2023-02-12T09:11:42;29.27;;;18.87;;
14776;SDS011;7480;43.124;25.686;2023-02-12T09:14:11;45.77;;;25.77;;
14776;SDS011;7480;43.124;25.686;2023-02-12T09:16:39;33.60;;;20.87;;
14776;SDS011;7480;43.124;25.686;2023-02-12T09:19:07;34.37;;;19.13;;
14776;SDS011;7480;43.124;25.686;2023-02-12T09:21:35;34.53;;;20.00;;
14776;SDS011;7480;43.124;25.686;2023-02-12T09:24:02;29.50;;;16.40;;
14776;SDS011;7480;43.124;25.686;2023-02-12T09:26:29;33.80;;;19.93;;
14776;SDS011;7480;43.124;25.686;2023-02-12T09:28:56;31.27;;;17.90;;
14776;SDS011;7480;43.124;25.686;2023-02-12T09:31:26;28.73;;;18.33;;
14776;SDS011;7480;43.124;25.686;2023-02-12T09:34:02;33.97;;;21.77;;
14776;SDS011;7480;43.124;25.686;2023-02-12T09:36:31;78.87;;;43.27;;
14776;SDS011;7480;43.124;25.686;2023-02-12T09:38:58;35.60;;;21.47;;
14776;SDS011;7480;43.124;25.686;2023-02-12T09:47:29;48.97;;;24.77;;
14776;SDS011;7480;43.124;25.686;2023-02-12T09:50:05;27.27;;;14.87;;
14776;SDS011;7480;43.124;25.686;2023-02-12T09:52:38;24.70;;;14.63;;
14776;SDS011;7480;43.124;25.686;2023-02-12T09:55:05;41.67;;;22.27;;
14776;SDS011;7480;43.124;25.686;2023-02-12T09:57:38;26.90;;;13.80;;
14776;SDS011;7480;43.124;25.686;2023-02-12T10:00:06;22.73;;;14.13;;
14776;SDS011;7480;43.124;25.686;2023-02-12T10:02:36;31.87;;;18.57;;
14776;SDS011;7480;43.124;25.686;2023-02-12T10:05:04;31.07;;;15.93;;
14776;SDS011;7480;43.124;25.686;2023-02-12T10:07:37;43.03;;;22.80;;
14776;SDS011;7480;43.124;25.686;2023-02-12T10:13:03;33.60;;;18.73;;
14776;SDS011;7480;43.124;25.686;2023-02-12T10:15:43;30.63;;;17.73;;
14776;SDS011;7480;43.124;25.686;2023-02-12T10:21:00;30.17;;;16.77;;
14776;SDS011;7480;43.124;25.686;2023-02-12T10:23:44;26.13;;;15.40;;
14776;SDS011;7480;43.124;25.686;2023-02-12T10:29:03;32.40;;;20.40;;
14776;SDS011;7480;43.124;25.686;2023-02-12T10:31:45;35.93;;;21.10;;
14776;SDS011;7480;43.124;25.686;2023-02-12T10:34:26;34.10;;;19.50;;
14776;SDS011;7480;43.124;25.686;2023-02-12T10:37:10;29.93;;;17.13;;
14776;SDS011;7480;43.124;25.686;2023-02-12T10:40:33;32.57;;;19.93;;
14776;SDS011;7480;43.124;25.686;2023-02-12T10:42:55;32.40;;;20.20;;
14776;SDS011;7480;43.124;25.686;2023-02-12T10:45:24;36.37;;;21.33;;
14776;SDS011;7480;43.124;25.686;2023-02-12T10:47:52;37.50;;;21.87;;
14776;SDS011;7480;43.124;25.686;2023-02-12T10:53:25;33.30;;;18.77;;
14776;SDS011;7480;43.124;25.686;2023-02-12T11:03:51;30.10;;;19.10;;
14776;SDS011;7480;43.124;25.686;2023-02-12T11:06:20;34.13;;;20.83;;
14776;SDS011;7480;43.124;25.686;2023-02-12T11:08:49;38.33;;;27.50;;
14776;SDS011;7480;43.124;25.686;2023-02-12T11:11:18;42.63;;;28.70;;
14776;SDS011;7480;43.124;25.686;2023-02-12T11:13:55;27.73;;;15.50;;
14776;SDS011;7480;43.124;25.686;2023-02-12T11:16:43;27.70;;;18.20;;
14776;SDS011;7480;43.124;25.686;2023-02-12T11:19:34;22.77;;;15.43;;
14776;SDS011;7480;43.124;25.686;2023-02-12T11:24:44;21.97;;;14.37;;
14776;SDS011;7480;43.124;25.686;2023-02-12T11:27:21;25.57;;;15.00;;
14776;SDS011;7480;43.124;25.686;2023-02-12T11:32:38;29.30;;;18.20;;
14776;SDS011;7480;43.124;25.686;2023-02-12T11:35:08;24.67;;;16.03;;
14776;SDS011;7480;43.124;25.686;2023-02-12T11:37:41;29.23;;;16.67;;
14776;SDS011;7480;43.124;25.686;2023-02-12T11:40:19;31.30;;;18.43;;
14776;SDS011;7480;43.124;25.686;2023-02-12T11:42:49;30.30;;;17.17;;
14776;SDS011;7480;43.124;25.686;2023-02-12T11:45:20;39.00;;;21.33;;
14776;SDS011;7480;43.124;25.686;2023-02-12T11:47:49;44.70;;;22.63;;
14776;SDS011;7480;43.124;25.686;2023-02-12T11:50:26;31.83;;;16.67;;
14776;SDS011;7480;43.124;25.686;2023-02-12T11:52:58;33.97;;;20.20;;
14776;SDS011;7480;43.124;25.686;2023-02-12T11:55:28;30.20;;;18.53;;
14776;SDS011;7480;43.124;25.686;2023-02-12T11:58:01;27.80;;;17.63;;
14776;SDS011;7480;43.124;25.686;2023-02-12T12:00:37;30.33;;;18.37;;
14776;SDS011;7480;43.124;25.686;2023-02-12T12:03:15;29.30;;;17.70;;
14776;SDS011;7480;43.124;25.686;2023-02-12T12:05:53;28.30;;;17.07;;
14776;SDS011;7480;43.124;25.686;2023-02-12T12:08:34;28.03;;;17.57;;
14776;SDS011;7480;43.124;25.686;2023-02-12T12:13:42;30.93;;;18.77;;
14776;SDS011;7480;43.124;25.686;2023-02-12T12:16:24;36.57;;;22.97;;
14776;SDS011;7480;43.124;25.686;2023-02-12T12:19:19;51.03;;;33.13;;
14776;SDS011;7480;43.124;25.686;2023-02-12T12:22:20;36.53;;;22.40;;
14776;SDS011;7480;43.124;25.686;2023-02-12T12:41:53;37.63;;;22.92;;
14776;SDS011;7480;43.124;25.686;2023-02-12T12:54:54;31.10;;;19.47;;
14776;SDS011;7480;43.124;25.686;2023-02-12T12:58:13;29.10;;;17.97;;
14776;SDS011;7480;43.124;25.686;2023-02-12T13:01:19;41.43;;;24.63;;
14776;SDS011;7480;43.124;25.686;2023-02-12T13:03:50;32.83;;;20.40;;
14776;SDS011;7480;43.124;25.686;2023-02-12T13:06:40;33.67;;;19.67;;
14776;SDS011;7480;43.124;25.686;2023-02-12T13:12:32;37.10;;;22.27;;
14776;SDS011;7480;43.124;25.686;2023-02-12T13:25:37;40.43;;;25.13;;
14776;SDS011;7480;43.124;25.686;2023-02-12T13:28:12;38.70;;;23.00;;
14776;SDS011;7480;43.124;25.686;2023-02-12T13:30:42;47.63;;;26.57;;
14776;SDS011;7480;43.124;25.686;2023-02-12T13:33:15;44.37;;;26.07;;
14776;SDS011;7480;43.124;25.686;2023-02-12T13:35:46;39.13;;;22.60;;
14776;SDS011;7480;43.124;25.686;2023-02-12T13:38:19;48.47;;;26.90;;
14776;SDS011;7480;43.124;25.686;2023-02-12T13:40:48;50.37;;;28.10;;
14776;SDS011;7480;43.124;25.686;2023-02-12T13:43:22;39.83;;;23.40;;
14776;SDS011;7480;43.124;25.686;2023-02-12T13:51:27;38.77;;;22.50;;
14776;SDS011;7480;43.124;25.686;2023-02-12T13:56:44;44.43;;;27.00;;
14776;SDS011;7480;43.124;25.686;2023-02-12T14:04:32;44.53;;;28.70;;
14776;SDS011;7480;43.124;25.686;2023-02-12T14:07:03;52.33;;;29.67;;
14776;SDS011;7480;43.124;25.686;2023-02-12T14:09:35;59.13;;;32.33;;
14776;SDS011;7480;43.124;25.686;2023-02-12T14:12:09;49.57;;;29.37;;
14776;SDS011;7480;43.124;25.686;2023-02-12T14:24:57;53.10;;;32.53;;
14776;SDS011;7480;43.124;25.686;2023-02-12T14:30:41;59.57;;;36.77;;
14776;SDS011;7480;43.124;25.686;2023-02-12T14:35:33;58.13;;;31.63;;
14776;SDS011;7480;43.124;25.686;2023-02-12T14:43:23;53.80;;;31.23;;
14776;SDS011;7480;43.124;25.686;2023-02-12T14:45:55;53.93;;;32.47;;
14776;SDS011;7480;43.124;25.686;2023-02-12T14:48:38;65.87;;;40.07;;
14776;SDS011;7480;43.124;25.686;2023-02-12T14:51:42;85.67;;;47.87;;
14776;SDS011;7480;43.124;25.686;2023-02-12T14:54:13;81.40;;;47.23;;
14776;SDS011;7480;43.124;25.686;2023-02-12T14:56:45;90.33;;;50.00;;
14776;SDS011;7480;43.124;25.686;2023-02-12T14:59:17;108.97;;;63.07;;
14776;SDS011;7480;43.124;25.686;2023-02-12T15:01:45;104.80;;;62.92;;
14776;SDS011;7480;43.124;25.686;2023-02-12T15:04:16;93.37;;;54.17;;
14776;SDS011;7480;43.124;25.686;2023-02-12T15:06:56;79.60;;;45.60;;
14776;SDS011;7480;43.124;25.686;2023-02-12T15:09:28;62.30;;;37.23;;
14776;SDS011;7480;43.124;25.686;2023-02-12T15:12:02;64.57;;;35.63;;
14776;SDS011;7480;43.124;25.686;2023-02-12T15:14:38;64.47;;;36.10;;
14776;SDS011;7480;43.124;25.686;2023-02-12T15:17:24;84.33;;;48.00;;
14776;SDS011;7480;43.124;25.686;2023-02-12T15:22:50;105.03;;;65.30;;
14776;SDS011;7480;43.124;25.686;2023-02-12T15:25:27;66.73;;;38.67;;
14776;SDS011;7480;43.124;25.686;2023-02-12T15:30:28;49.97;;;31.90;;
14776;SDS011;7480;43.124;25.686;2023-02-12T15:32:57;44.00;;;28.83;;
14776;SDS011;7480;43.124;25.686;2023-02-12T15:35:36;61.47;;;37.93;;
14776;SDS011;7480;43.124;25.686;2023-02-12T15:38:03;59.60;;;35.93;;
14776;SDS011;7480;43.124;25.686;2023-02-12T15:40:33;53.87;;;32.47;;
14776;SDS011;7480;43.124;25.686;2023-02-12T15:43:00;73.77;;;43.93;;
14776;SDS011;7480;43.124;25.686;2023-02-12T15:45:29;90.40;;;50.73;;
14776;SDS011;7480;43.124;25.686;2023-02-12T15:47:59;90.00;;;50.93;;
14776;SDS011;7480;43.124;25.686;2023-02-12T15:50:52;78.03;;;46.53;;
14776;SDS011;7480;43.124;25.686;2023-02-12T15:53:22;68.17;;;41.07;;
14776;SDS011;7480;43.124;25.686;2023-02-12T15:55:49;57.57;;;34.23;;
14776;SDS011;7480;43.124;25.686;2023-02-12T15:58:21;58.30;;;32.13;;
14776;SDS011;7480;43.124;25.686;2023-02-12T16:00:49;69.07;;;41.80;;
14776;SDS011;7480;43.124;25.686;2023-02-12T16:03:20;75.90;;;49.03;;
14776;SDS011;7480;43.124;25.686;2023-02-12T16:05:48;64.90;;;40.93;;
14776;SDS011;7480;43.124;25.686;2023-02-12T16:08:16;64.83;;;39.13;;
14776;SDS011;7480;43.124;25.686;2023-02-12T16:10:44;56.37;;;36.63;;
14776;SDS011;7480;43.124;25.686;2023-02-12T16:13:18;57.83;;;39.77;;
14776;SDS011;7480;43.124;25.686;2023-02-12T16:16:03;52.03;;;30.33;;
14776;SDS011;7480;43.124;25.686;2023-02-12T16:18:32;53.33;;;34.17;;
14776;SDS011;7480;43.124;25.686;2023-02-12T16:23:43;60.10;;;35.07;;
14776;SDS011;7480;43.124;25.686;2023-02-12T16:26:17;81.47;;;42.20;;
14776;SDS011;7480;43.124;25.686;2023-02-12T16:28:46;93.33;;;50.27;;
14776;SDS011;7480;43.124;25.686;2023-02-12T16:31:14;73.93;;;41.73;;
14776;SDS011;7480;43.124;25.686;2023-02-12T16:33:44;96.40;;;49.50;;
14776;SDS011;7480;43.124;25.686;2023-02-12T16:39:03;66.23;;;38.13;;
14776;SDS011;7480;43.124;25.686;2023-02-12T16:41:31;45.87;;;27.83;;
14776;SDS011;7480;43.124;25.686;2023-02-12T16:46:30;54.97;;;31.40;;
14776;SDS011;7480;43.124;25.686;2023-02-12T16:49:21;49.10;;;26.23;;
14776;SDS011;7480;43.124;25.686;2023-02-12T16:51:48;54.20;;;29.43;;
14776;SDS011;7480;43.124;25.686;2023-02-12T16:54:31;99.10;;;54.67;;
14776;SDS011;7480;43.124;25.686;2023-02-12T16:56:59;119.73;;;62.77;;
14776;SDS011;7480;43.124;25.686;2023-02-12T16:59:27;132.33;;;74.10;;
14776;SDS011;7480;43.124;25.686;2023-02-12T17:04:23;97.53;;;49.60;;
14776;SDS011;7480;43.124;25.686;2023-02-12T17:06:51;54.97;;;31.07;;
14776;SDS011;7480;43.124;25.686;2023-02-12T17:09:19;122.47;;;60.13;;
14776;SDS011;7480;43.124;25.686;2023-02-12T17:11:46;66.20;;;36.03;;
14776;SDS011;7480;43.124;25.686;2023-02-12T17:14:14;58.03;;;33.03;;
14776;SDS011;7480;43.124;25.686;2023-02-12T17:16:42;99.37;;;45.17;;
14776;SDS011;7480;43.124;25.686;2023-02-12T17:19:10;68.07;;;36.97;;
14776;SDS011;7480;43.124;25.686;2023-02-12T17:21:38;87.03;;;45.13;;
14776;SDS011;7480;43.124;25.686;2023-02-12T17:24:08;68.00;;;39.13;;
14776;SDS011;7480;43.124;25.686;2023-02-12T17:26:39;76.97;;;42.23;;
14776;SDS011;7480;43.124;25.686;2023-02-12T17:29:06;84.33;;;45.70;;
14776;SDS011;7480;43.124;25.686;2023-02-12T17:31:33;73.03;;;43.80;;
14776;SDS011;7480;43.124;25.686;2023-02-12T17:34:00;74.33;;;41.07;;
14776;SDS011;7480;43.124;25.686;2023-02-12T17:36:27;78.97;;;41.90;;
14776;SDS011;7480;43.124;25.686;2023-02-12T17:38:53;47.53;;;27.70;;
14776;SDS011;7480;43.124;25.686;2023-02-12T17:41:20;53.53;;;33.47;;